Upperville, New York
Current Conditions -  °F | °C
As of 9:35 AM on Tuesday 21 Oct 2014 (Local Time) from KN03 Reporting Station
Overcast Overcast  
Wind Chill: 46°   Ceiling: 3400
Heat Index: 46°   Visibility: 10mi
Dew Point: 46°   Wind: 0mph
Humidity: 100%   Direction: NA
Pressure: 29.85"   Gusts: NA
Location:  42.6914°N, 75.6351°W
Report Text: KN03 211335Z AUTO 00000KT 10SM OVC034 08/08 A2985 RMK AO2
Loading
Personal Weather Stations






























Interactive Weather Map
Tropical Storm Tracking
New forecast layout! Learn more

10-Day Weather Forecast

Advertisements
Track Severe Weather on mobile